sensor_id;sensor_type;location;lat;lon;timestamp;pressure;altitude;pressure_sealevel;temperature;humidity
26807;BME280;14380;49.910;6.792;2023-04-22T00:01:13;98066.09;;;9.92;100.00
26807;BME280;14380;49.910;6.792;2023-04-22T00:03:39;98058.94;;;9.94;100.00
26807;BME280;14380;49.910;6.792;2023-04-22T00:06:06;98054.50;;;9.95;100.00
26807;BME280;14380;49.910;6.792;2023-04-22T00:08:35;98062.75;;;10.03;100.00
26807;BME280;14380;49.910;6.792;2023-04-22T00:11:01;98065.59;;;10.00;100.00
26807;BME280;14380;49.910;6.792;2023-04-22T00:13:28;98068.84;;;9.91;100.00
26807;BME280;14380;49.910;6.792;2023-04-22T00:15:55;98064.16;;;9.67;100.00
26807;BME280;14380;49.910;6.792;2023-04-22T00:18:21;98058.50;;;9.73;100.00
26807;BME280;14380;49.910;6.792;2023-04-22T00:20:48;98057.31;;;9.64;100.00
26807;BME280;14380;49.910;6.792;2023-04-22T00:23:15;98063.59;;;9.76;100.00
26807;BME280;14380;49.910;6.792;2023-04-22T00:25:43;98057.38;;;9.77;100.00
26807;BME280;14380;49.910;6.792;2023-04-22T00:28:09;98055.94;;;9.44;100.00
26807;BME280;14380;49.910;6.792;2023-04-22T00:30:36;98056.19;;;9.54;100.00
26807;BME280;14380;49.910;6.792;2023-04-22T00:33:03;98051.19;;;9.49;100.00
26807;BME280;14380;49.910;6.792;2023-04-22T00:35:30;98054.22;;;9.43;100.00
26807;BME280;14380;49.910;6.792;2023-04-22T00:37:57;98044.06;;;9.37;100.00
26807;BME280;14380;49.910;6.792;2023-04-22T00:40:23;98042.94;;;9.41;100.00
26807;BME280;14380;49.910;6.792;2023-04-22T00:42:52;98041.31;;;9.38;100.00
26807;BME280;14380;49.910;6.792;2023-04-22T00:45:19;98037.84;;;9.23;100.00
26807;BME280;14380;49.910;6.792;2023-04-22T00:47:46;98044.34;;;9.03;100.00
26807;BME280;14380;49.910;6.792;2023-04-22T00:50:13;98030.25;;;9.04;100.00
26807;BME280;14380;49.910;6.792;2023-04-22T00:52:40;98029.00;;;9.25;100.00
26807;BME280;14380;49.910;6.792;2023-04-22T00:55:07;98031.63;;;9.10;100.00
26807;BME280;14380;49.910;6.792;2023-04-22T00:57:35;98023.38;;;9.31;100.00
26807;BME280;14380;49.910;6.792;2023-04-22T01:00:03;98029.47;;;9.31;100.00
26807;BME280;14380;49.910;6.792;2023-04-22T01:02:30;98032.84;;;9.33;100.00
26807;BME280;14380;49.910;6.792;2023-04-22T01:04:57;98032.41;;;9.27;100.00
26807;BME280;14380;49.910;6.792;2023-04-22T01:07:25;98024.69;;;9.23;100.00
26807;BME280;14380;49.910;6.792;2023-04-22T01:09:52;98010.69;;;9.23;100.00
26807;BME280;14380;49.910;6.792;2023-04-22T01:12:19;98016.66;;;9.40;100.00
26807;BME280;14380;49.910;6.792;2023-04-22T01:14:45;98014.72;;;9.43;100.00
26807;BME280;14380;49.910;6.792;2023-04-22T01:17:14;98006.81;;;9.43;100.00
26807;BME280;14380;49.910;6.792;2023-04-22T01:19:43;98004.72;;;9.48;100.00
26807;BME280;14380;49.910;6.792;2023-04-22T01:22:12;98003.22;;;9.44;100.00
26807;BME280;14380;49.910;6.792;2023-04-22T01:24:40;97996.72;;;9.35;100.00
26807;BME280;14380;49.910;6.792;2023-04-22T01:27:07;98001.06;;;9.36;100.00
26807;BME280;14380;49.910;6.792;2023-04-22T01:29:35;97998.16;;;9.27;100.00
26807;BME280;14380;49.910;6.792;2023-04-22T01:32:03;98005.22;;;9.26;100.00
26807;BME280;14380;49.910;6.792;2023-04-22T01:34:30;98007.94;;;9.39;100.00
26807;BME280;14380;49.910;6.792;2023-04-22T01:36:57;98002.38;;;9.29;100.00
26807;BME280;14380;49.910;6.792;2023-04-22T01:39:24;98014.16;;;9.23;100.00
26807;BME280;14380;49.910;6.792;2023-04-22T01:41:52;98012.44;;;9.08;100.00
26807;BME280;14380;49.910;6.792;2023-04-22T01:44:19;98016.13;;;9.05;100.00
26807;BME280;14380;49.910;6.792;2023-04-22T01:46:46;98012.09;;;9.00;100.00
26807;BME280;14380;49.910;6.792;2023-04-22T01:49:13;98021.41;;;9.05;100.00
26807;BME280;14380;49.910;6.792;2023-04-22T01:51:39;98021.22;;;9.08;100.00
26807;BME280;14380;49.910;6.792;2023-04-22T01:54:06;98019.88;;;9.01;100.00
26807;BME280;14380;49.910;6.792;2023-04-22T01:56:34;98018.78;;;9.05;100.00
26807;BME280;14380;49.910;6.792;2023-04-22T01:59:02;98023.56;;;9.13;100.00
26807;BME280;14380;49.910;6.792;2023-04-22T02:01:29;98022.63;;;9.00;100.00
26807;BME280;14380;49.910;6.792;2023-04-22T02:03:55;98024.78;;;8.78;100.00
26807;BME280;14380;49.910;6.792;2023-04-22T02:06:22;98028.91;;;8.83;100.00
26807;BME280;14380;49.910;6.792;2023-04-22T02:08:49;98033.88;;;8.73;100.00
26807;BME280;14380;49.910;6.792;2023-04-22T02:11:15;98031.53;;;8.68;100.00
26807;BME280;14380;49.910;6.792;2023-04-22T02:13:42;98026.91;;;8.72;100.00
26807;BME280;14380;49.910;6.792;2023-04-22T02:16:10;98022.75;;;8.68;100.00
26807;BME280;14380;49.910;6.792;2023-04-22T02:18:37;98028.38;;;8.61;100.00
26807;BME280;14380;49.910;6.792;2023-04-22T02:21:04;98024.72;;;8.33;100.00
26807;BME280;14380;49.910;6.792;2023-04-22T02:23:31;98020.81;;;8.41;100.00
26807;BME280;14380;49.910;6.792;2023-04-22T02:25:58;98025.03;;;8.59;100.00
26807;BME280;14380;49.910;6.792;2023-04-22T02:28:25;98013.63;;;8.28;100.00
26807;BME280;14380;49.910;6.792;2023-04-22T02:30:51;98026.94;;;8.25;100.00
26807;BME280;14380;49.910;6.792;2023-04-22T02:33:19;98030.69;;;8.21;100.00
26807;BME280;14380;49.910;6.792;2023-04-22T02:35:46;98024.50;;;8.22;100.00
26807;BME280;14380;49.910;6.792;2023-04-22T02:38:13;98033.16;;;8.08;100.00
26807;BME280;14380;49.910;6.792;2023-04-22T02:40:39;98031.31;;;8.10;100.00
26807;BME280;14380;49.910;6.792;2023-04-22T02:43:06;98038.34;;;8.10;100.00
26807;BME280;14380;49.910;6.792;2023-04-22T02:45:33;98033.13;;;8.24;100.00
26807;BME280;14380;49.910;6.792;2023-04-22T02:48:00;98031.22;;;8.12;100.00
26807;BME280;14380;49.910;6.792;2023-04-22T02:50:28;98030.81;;;8.03;100.00
26807;BME280;14380;49.910;6.792;2023-04-22T02:52:55;98035.28;;;8.17;100.00
26807;BME280;14380;49.910;6.792;2023-04-22T02:55:22;98035.91;;;8.07;100.00
26807;BME280;14380;49.910;6.792;2023-04-22T02:57:50;98032.59;;;8.03;100.00
26807;BME280;14380;49.910;6.792;2023-04-22T03:00:16;98038.00;;;8.16;100.00
26807;BME280;14380;49.910;6.792;2023-04-22T03:02:43;98036.50;;;8.12;100.00
26807;BME280;14380;49.910;6.792;2023-04-22T03:05:10;98033.63;;;8.00;100.00
26807;BME280;14380;49.910;6.792;2023-04-22T03:07:38;98031.72;;;8.18;100.00
26807;BME280;14380;49.910;6.792;2023-04-22T03:10:06;98024.09;;;7.98;100.00
26807;BME280;14380;49.910;6.792;2023-04-22T03:12:33;98021.03;;;8.22;100.00
26807;BME280;14380;49.910;6.792;2023-04-22T03:15:00;98022.47;;;8.11;100.00
26807;BME280;14380;49.910;6.792;2023-04-22T03:17:27;98023.00;;;8.02;100.00
26807;BME280;14380;49.910;6.792;2023-04-22T03:19:53;98018.47;;;7.89;100.00
26807;BME280;14380;49.910;6.792;2023-04-22T03:22:20;98015.00;;;7.73;100.00
26807;BME280;14380;49.910;6.792;2023-04-22T03:24:48;98014.66;;;7.79;100.00
26807;BME280;14380;49.910;6.792;2023-04-22T03:27:15;98019.56;;;7.69;100.00
26807;BME280;14380;49.910;6.792;2023-04-22T03:29:42;98014.13;;;7.88;100.00
26807;BME280;14380;49.910;6.792;2023-04-22T03:32:08;98003.97;;;7.66;100.00
26807;BME280;14380;49.910;6.792;2023-04-22T03:34:35;98009.38;;;7.31;100.00
26807;BME280;14380;49.910;6.792;2023-04-22T03:37:02;98008.63;;;7.61;100.00
26807;BME280;14380;49.910;6.792;2023-04-22T03:39:29;98006.63;;;7.50;100.00
26807;BME280;14380;49.910;6.792;2023-04-22T03:41:57;98000.41;;;7.51;100.00
26807;BME280;14380;49.910;6.792;2023-04-22T03:44:23;97995.84;;;7.55;100.00
26807;BME280;14380;49.910;6.792;2023-04-22T03:46:50;98002.78;;;7.56;100.00
26807;BME280;14380;49.910;6.792;2023-04-22T03:49:17;97986.75;;;7.93;100.00
26807;BME280;14380;49.910;6.792;2023-04-22T03:51:44;97993.88;;;7.74;100.00
26807;BME280;14380;49.910;6.792;2023-04-22T03:54:10;97986.25;;;7.54;100.00
26807;BME280;14380;49.910;6.792;2023-04-22T03:56:37;97985.41;;;7.37;100.00
26807;BME280;14380;49.910;6.792;2023-04-22T03:59:05;97995.91;;;7.37;100.00
26807;BME280;14380;49.910;6.792;2023-04-22T04:01:32;97987.81;;;7.42;100.00
26807;BME280;14380;49.910;6.792;2023-04-22T04:04:00;97987.69;;;7.27;100.00
26807;BME280;14380;49.910;6.792;2023-04-22T04:06:27;97985.94;;;7.60;100.00
26807;BME280;14380;49.910;6.792;2023-04-22T04:08:54;97981.94;;;7.69;100.00
26807;BME280;14380;49.910;6.792;2023-04-22T04:11:21;97989.16;;;7.65;100.00
26807;BME280;14380;49.910;6.792;2023-04-22T04:13:47;97987.78;;;7.58;100.00
26807;BME280;14380;49.910;6.792;2023-04-22T04:16:16;97982.72;;;7.55;100.00
26807;BME280;14380;49.910;6.792;2023-04-22T04:18:43;97993.06;;;7.42;100.00
26807;BME280;14380;49.910;6.792;2023-04-22T04:21:09;97994.22;;;7.52;100.00
26807;BME280;14380;49.910;6.792;2023-04-22T04:23:36;97999.31;;;7.39;100.00
26807;BME280;14380;49.910;6.792;2023-04-22T04:26:03;97999.91;;;7.44;100.00
26807;BME280;14380;49.910;6.792;2023-04-22T04:28:30;98001.84;;;7.57;100.00
26807;BME280;14380;49.910;6.792;2023-04-22T04:30:58;97996.00;;;7.36;100.00
26807;BME280;14380;49.910;6.792;2023-04-22T04:33:28;98003.22;;;7.48;100.00
26807;BME280;14380;49.910;6.792;2023-04-22T04:35:56;97991.44;;;7.71;100.00
26807;BME280;14380;49.910;6.792;2023-04-22T04:38:23;98000.00;;;7.59;100.00
26807;BME280;14380;49.910;6.792;2023-04-22T04:40:51;98000.00;;;7.59;100.00
26807;BME280;14380;49.910;6.792;2023-04-22T04:43:18;98003.63;;;7.56;100.00
26807;BME280;14380;49.910;6.792;2023-04-22T04:45:45;98003.72;;;7.71;100.00
26807;BME280;14380;49.910;6.792;2023-04-22T04:48:13;98005.31;;;7.73;100.00
26807;BME280;14380;49.910;6.792;2023-04-22T04:50:43;98010.00;;;7.68;100.00
26807;BME280;14380;49.910;6.792;2023-04-22T04:53:09;98009.13;;;7.68;100.00
26807;BME280;14380;49.910;6.792;2023-04-22T04:55:37;98012.97;;;7.62;100.00
26807;BME280;14380;49.910;6.792;2023-04-22T04:58:04;97995.81;;;7.71;100.00
26807;BME280;14380;49.910;6.792;2023-04-22T05:00:31;97994.91;;;7.72;100.00
26807;BME280;14380;49.910;6.792;2023-04-22T05:02:58;97996.59;;;7.73;100.00
26807;BME280;14380;49.910;6.792;2023-04-22T05:05:24;98007.59;;;7.80;100.00
26807;BME280;14380;49.910;6.792;2023-04-22T05:07:53;97991.88;;;8.10;100.00
26807;BME280;14380;49.910;6.792;2023-04-22T05:10:20;97995.88;;;8.01;100.00
26807;BME280;14380;49.910;6.792;2023-04-22T05:12:46;97996.69;;;7.71;100.00
26807;BME280;14380;49.910;6.792;2023-04-22T05:15:13;97998.56;;;8.16;100.00
26807;BME280;14380;49.910;6.792;2023-04-22T05:17:41;98001.44;;;8.42;100.00
26807;BME280;14380;49.910;6.792;2023-04-22T05:20:09;97995.16;;;8.44;100.00
26807;BME280;14380;49.910;6.792;2023-04-22T05:22:35;97996.69;;;8.48;100.00
26807;BME280;14380;49.910;6.792;2023-04-22T05:25:04;97996.53;;;8.52;100.00
26807;BME280;14380;49.910;6.792;2023-04-22T05:27:31;97990.31;;;8.53;100.00
26807;BME280;14380;49.910;6.792;2023-04-22T05:29:58;97989.41;;;8.68;100.00
26807;BME280;14380;49.910;6.792;2023-04-22T05:32:25;97987.25;;;8.89;100.00
26807;BME280;14380;49.910;6.792;2023-04-22T05:34:52;97978.59;;;9.16;100.00
26807;BME280;14380;49.910;6.792;2023-04-22T05:37:19;97989.47;;;9.81;100.00
26807;BME280;14380;49.910;6.792;2023-04-22T05:39:45;97985.75;;;9.71;100.00
26807;BME280;14380;49.910;6.792;2023-04-22T05:42:13;97995.22;;;9.31;100.00
26807;BME280;14380;49.910;6.792;2023-04-22T05:44:40;97996.38;;;9.69;100.00
26807;BME280;14380;49.910;6.792;2023-04-22T05:47:06;98000.31;;;10.04;100.00
26807;BME280;14380;49.910;6.792;2023-04-22T05:49:33;97998.34;;;10.48;100.00
26807;BME280;14380;49.910;6.792;2023-04-22T05:52:00;98000.72;;;10.25;100.00
26807;BME280;14380;49.910;6.792;2023-04-22T05:54:27;97999.28;;;10.47;100.00
26807;BME280;14380;49.910;6.792;2023-04-22T05:56:55;98003.34;;;10.65;100.00
26807;BME280;14380;49.910;6.792;2023-04-22T05:59:24;97997.72;;;10.83;100.00
26807;BME280;14380;49.910;6.792;2023-04-22T06:01:50;97998.56;;;11.22;100.00
26807;BME280;14380;49.910;6.792;2023-04-22T06:04:17;98006.25;;;11.38;100.00
26807;BME280;14380;49.910;6.792;2023-04-22T06:06:44;98008.75;;;10.77;100.00
26807;BME280;14380;49.910;6.792;2023-04-22T06:09:11;98009.38;;;10.80;100.00
26807;BME280;14380;49.910;6.792;2023-04-22T06:11:38;98010.84;;;10.84;100.00
26807;BME280;14380;49.910;6.792;2023-04-22T06:14:05;98004.94;;;11.07;100.00
26807;BME280;14380;49.910;6.792;2023-04-22T06:16:33;98001.03;;;11.63;100.00
26807;BME280;14380;49.910;6.792;2023-04-22T06:18:59;97994.44;;;11.93;100.00
26807;BME280;14380;49.910;6.792;2023-04-22T06:21:26;97996.75;;;11.97;100.00
26807;BME280;14380;49.910;6.792;2023-04-22T06:23:52;98001.91;;;12.12;100.00
26807;BME280;14380;49.910;6.792;2023-04-22T06:26:20;98005.22;;;12.27;100.00
26807;BME280;14380;49.910;6.792;2023-04-22T06:28:48;98006.34;;;11.74;100.00
26807;BME280;14380;49.910;6.792;2023-04-22T06:31:15;98006.34;;;11.74;100.00
26807;BME280;14380;49.910;6.792;2023-04-22T06:33:43;98006.13;;;11.77;100.00
26807;BME280;14380;49.910;6.792;2023-04-22T06:36:10;98003.00;;;11.96;100.00
26807;BME280;14380;49.910;6.792;2023-04-22T06:38:37;98001.84;;;12.60;100.00
26807;BME280;14380;49.910;6.792;2023-04-22T06:41:03;97995.25;;;12.77;100.00
26807;BME280;14380;49.910;6.792;2023-04-22T06:43:31;97992.97;;;12.84;100.00
26807;BME280;14380;49.910;6.792;2023-04-22T06:45:57;97990.94;;;12.88;100.00
26807;BME280;14380;49.910;6.792;2023-04-22T06:48:24;97997.59;;;13.16;100.00
26807;BME280;14380;49.910;6.792;2023-04-22T06:50:52;97992.72;;;12.76;100.00
26807;BME280;14380;49.910;6.792;2023-04-22T06:53:19;97992.25;;;12.93;100.00
26807;BME280;14380;49.910;6.792;2023-04-22T06:55:46;97986.50;;;13.11;100.00
26807;BME280;14380;49.910;6.792;2023-04-22T06:58:14;97989.84;;;13.36;100.00
26807;BME280;14380;49.910;6.792;2023-04-22T07:00:41;97982.88;;;13.58;100.00
26807;BME280;14380;49.910;6.792;2023-04-22T07:03:07;97985.38;;;13.59;100.00
26807;BME280;14380;49.910;6.792;2023-04-22T07:05:34;97985.63;;;13.67;100.00
26807;BME280;14380;49.910;6.792;2023-04-22T07:08:03;97986.81;;;13.75;100.00
26807;BME280;14380;49.910;6.792;2023-04-22T07:10:30;97987.66;;;13.75;100.00
26807;BME280;14380;49.910;6.792;2023-04-22T07:12:59;97987.53;;;14.42;100.00
26807;BME280;14380;49.910;6.792;2023-04-22T07:15:25;97983.63;;;14.67;100.00
26807;BME280;14380;49.910;6.792;2023-04-22T07:17:52;97976.88;;;15.06;100.00
26807;BME280;14380;49.910;6.792;2023-04-22T07:20:19;97978.81;;;14.72;100.00
26807;BME280;14380;49.910;6.792;2023-04-22T07:22:46;97968.19;;;15.35;100.00
26807;BME280;14380;49.910;6.792;2023-04-22T07:25:14;97966.75;;;15.21;100.00
26807;BME280;14380;49.910;6.792;2023-04-22T07:27:41;97966.09;;;15.38;100.00
26807;BME280;14380;49.910;6.792;2023-04-22T07:30:09;97962.09;;;15.73;100.00
26807;BME280;14380;49.910;6.792;2023-04-22T07:32:37;97962.59;;;16.08;100.00
26807;BME280;14380;49.910;6.792;2023-04-22T07:35:04;97961.47;;;15.40;100.00
26807;BME280;14380;49.910;6.792;2023-04-22T07:37:31;97962.97;;;15.84;100.00
26807;BME280;14380;49.910;6.792;2023-04-22T07:39:57;97952.06;;;15.26;100.00
26807;BME280;14380;49.910;6.792;2023-04-22T07:42:25;97954.81;;;15.56;100.00
26807;BME280;14380;49.910;6.792;2023-04-22T07:44:55;97953.41;;;15.61;100.00
26807;BME280;14380;49.910;6.792;2023-04-22T07:47:24;97950.03;;;15.50;100.00
26807;BME280;14380;49.910;6.792;2023-04-22T07:49:51;97945.59;;;15.80;100.00
26807;BME280;14380;49.910;6.792;2023-04-22T07:52:19;97947.56;;;15.77;100.00
26807;BME280;14380;49.910;6.792;2023-04-22T07:54:46;97951.13;;;16.08;100.00
26807;BME280;14380;49.910;6.792;2023-04-22T07:57:12;97951.91;;;15.79;100.00
26807;BME280;14380;49.910;6.792;2023-04-22T07:59:41;97948.72;;;15.95;100.00
26807;BME280;14380;49.910;6.792;2023-04-22T08:02:07;97947.19;;;16.02;100.00
26807;BME280;14380;49.910;6.792;2023-04-22T08:04:34;97952.50;;;16.41;100.00
26807;BME280;14380;49.910;6.792;2023-04-22T08:07:01;97956.56;;;16.45;100.00
26807;BME280;14380;49.910;6.792;2023-04-22T08:09:28;97951.94;;;16.38;100.00
26807;BME280;14380;49.910;6.792;2023-04-22T08:11:55;97949.31;;;16.85;100.00
26807;BME280;14380;49.910;6.792;2023-04-22T08:14:22;97948.41;;;16.57;95.71
26807;BME280;14380;49.910;6.792;2023-04-22T08:16:51;97955.84;;;16.63;94.90
26807;BME280;14380;49.910;6.792;2023-04-22T08:19:19;97953.00;;;17.50;88.34
26807;BME280;14380;49.910;6.792;2023-04-22T08:21:46;97949.91;;;17.27;90.62
26807;BME280;14380;49.910;6.792;2023-04-22T08:24:13;97950.72;;;18.01;96.56
26807;BME280;14380;49.910;6.792;2023-04-22T08:26:40;97945.44;;;17.91;80.97
26807;BME280;14380;49.910;6.792;2023-04-22T08:29:07;97952.78;;;18.07;80.10
26807;BME280;14380;49.910;6.792;2023-04-22T08:31:34;97943.66;;;18.36;79.82
26807;BME280;14380;49.910;6.792;2023-04-22T08:34:02;97939.75;;;18.49;78.81
26807;BME280;14380;49.910;6.792;2023-04-22T08:36:29;97928.03;;;18.23;75.47
26807;BME280;14380;49.910;6.792;2023-04-22T08:38:56;97935.53;;;18.20;73.79
26807;BME280;14380;49.910;6.792;2023-04-22T08:41:23;97941.50;;;17.67;77.29
26807;BME280;14380;49.910;6.792;2023-04-22T08:43:51;97951.81;;;17.62;73.40
26807;BME280;14380;49.910;6.792;2023-04-22T08:46:19;97943.63;;;17.46;75.60
26807;BME280;14380;49.910;6.792;2023-04-22T08:48:49;97946.41;;;17.72;77.25
26807;BME280;14380;49.910;6.792;2023-04-22T08:51:17;97946.25;;;17.92;74.77
26807;BME280;14380;49.910;6.792;2023-04-22T08:53:45;97947.69;;;17.68;73.97
26807;BME280;14380;49.910;6.792;2023-04-22T08:56:12;97957.78;;;17.92;77.25
26807;BME280;14380;49.910;6.792;2023-04-22T08:58:39;97955.72;;;17.68;72.75
26807;BME280;14380;49.910;6.792;2023-04-22T09:01:07;97954.53;;;17.98;75.99
26807;BME280;14380;49.910;6.792;2023-04-22T09:03:34;97961.28;;;17.93;76.89
26807;BME280;14380;49.910;6.792;2023-04-22T09:06:03;97956.22;;;18.18;77.64
26807;BME280;14380;49.910;6.792;2023-04-22T09:08:31;97951.94;;;18.25;71.93
26807;BME280;14380;49.910;6.792;2023-04-22T09:10:58;97945.44;;;18.72;72.21
26807;BME280;14380;49.910;6.792;2023-04-22T09:13:25;97939.88;;;18.92;73.51
26807;BME280;14380;49.910;6.792;2023-04-22T09:15:52;97949.09;;;18.71;73.74
26807;BME280;14380;49.910;6.792;2023-04-22T09:18:19;97951.59;;;19.17;68.86
26807;BME280;14380;49.910;6.792;2023-04-22T09:20:47;97944.69;;;19.14;67.62
26807;BME280;14380;49.910;6.792;2023-04-22T09:23:14;97949.16;;;19.32;69.14
26807;BME280;14380;49.910;6.792;2023-04-22T09:25:43;97953.56;;;19.58;69.00
26807;BME280;14380;49.910;6.792;2023-04-22T09:28:11;97949.06;;;19.67;67.51
26807;BME280;14380;49.910;6.792;2023-04-22T09:30:43;97958.28;;;19.21;69.79
26807;BME280;14380;49.910;6.792;2023-04-22T09:33:11;97948.19;;;19.50;67.07
26807;BME280;14380;49.910;6.792;2023-04-22T09:35:39;97950.09;;;19.23;66.03
26807;BME280;14380;49.910;6.792;2023-04-22T09:38:08;97954.31;;;19.76;66.03
26807;BME280;14380;49.910;6.792;2023-04-22T09:40:37;97956.31;;;19.74;66.54
26807;BME280;14380;49.910;6.792;2023-04-22T09:43:06;97952.53;;;20.02;68.34
26807;BME280;14380;49.910;6.792;2023-04-22T09:45:35;97956.78;;;19.70;68.48
26807;BME280;14380;49.910;6.792;2023-04-22T09:48:06;97959.47;;;19.78;68.55
26807;BME280;14380;49.910;6.792;2023-04-22T09:50:34;97956.84;;;19.86;67.17
26807;BME280;14380;49.910;6.792;2023-04-22T09:53:02;97954.91;;;19.54;67.50
26807;BME280;14380;49.910;6.792;2023-04-22T09:55:32;97952.53;;;20.18;62.51
26807;BME280;14380;49.910;6.792;2023-04-22T09:58:05;97962.44;;;20.10;69.04
26807;BME280;14380;49.910;6.792;2023-04-22T10:00:36;97961.94;;;20.31;67.53
26807;BME280;14380;49.910;6.792;2023-04-22T10:03:04;97964.59;;;20.56;66.37
26807;BME280;14380;49.910;6.792;2023-04-22T10:05:30;97952.06;;;20.15;65.02
26807;BME280;14380;49.910;6.792;2023-04-22T10:07:58;97950.31;;;19.81;63.82
26807;BME280;14380;49.910;6.792;2023-04-22T10:10:25;97960.50;;;19.77;67.43
26807;BME280;14380;49.910;6.792;2023-04-22T10:12:52;97958.47;;;19.71;67.67
26807;BME280;14380;49.910;6.792;2023-04-22T10:15:20;97960.09;;;20.31;67.39
26807;BME280;14380;49.910;6.792;2023-04-22T10:17:48;97958.47;;;19.63;65.70
26807;BME280;14380;49.910;6.792;2023-04-22T10:20:19;97959.34;;;19.88;65.58
26807;BME280;14380;49.910;6.792;2023-04-22T10:22:46;97954.16;;;19.86;66.85
26807;BME280;14380;49.910;6.792;2023-04-22T10:25:20;97950.13;;;19.82;64.15
26807;BME280;14380;49.910;6.792;2023-04-22T10:27:52;97954.16;;;19.86;66.78
26807;BME280;14380;49.910;6.792;2023-04-22T10:30:28;97957.41;;;20.15;65.42
26807;BME280;14380;49.910;6.792;2023-04-22T10:32:55;97952.03;;;20.48;63.98
26807;BME280;14380;49.910;6.792;2023-04-22T10:35:26;97958.22;;;20.15;65.29
26807;BME280;14380;49.910;6.792;2023-04-22T10:37:53;97956.06;;;20.19;65.75
26807;BME280;14380;49.910;6.792;2023-04-22T10:40:20;97948.53;;;20.23;65.33
26807;BME280;14380;49.910;6.792;2023-04-22T10:42:50;97947.88;;;20.29;64.08
26807;BME280;14380;49.910;6.792;2023-04-22T10:45:17;97947.53;;;20.07;68.60
26807;BME280;14380;49.910;6.792;2023-04-22T10:47:45;97950.88;;;20.01;67.79
26807;BME280;14380;49.910;6.792;2023-04-22T10:50:16;97952.53;;;20.10;68.81
26807;BME280;14380;49.910;6.792;2023-04-22T10:52:47;97961.34;;;19.77;68.34
26807;BME280;14380;49.910;6.792;2023-04-22T10:55:14;97966.47;;;19.54;66.87
26807;BME280;14380;49.910;6.792;2023-04-22T10:57:43;97963.03;;;19.01;67.21
26807;BME280;14380;49.910;6.792;2023-04-22T11:00:25;97973.50;;;19.21;68.30
26807;BME280;14380;49.910;6.792;2023-04-22T11:03:05;97971.28;;;19.51;70.15
26807;BME280;14380;49.910;6.792;2023-04-22T11:05:33;97972.16;;;19.59;68.90
26807;BME280;14380;49.910;6.792;2023-04-22T11:08:02;97968.28;;;19.54;69.07
26807;BME280;14380;49.910;6.792;2023-04-22T11:10:40;97974.00;;;19.59;69.02
26807;BME280;14380;49.910;6.792;2023-04-22T11:13:08;97966.75;;;19.43;70.14
26807;BME280;14380;49.910;6.792;2023-04-22T11:15:37;97972.06;;;19.77;68.48
26807;BME280;14380;49.910;6.792;2023-04-22T11:18:09;97976.75;;;19.84;69.62
26807;BME280;14380;49.910;6.792;2023-04-22T11:20:37;97977.22;;;19.71;67.49
26807;BME280;14380;49.910;6.792;2023-04-22T11:23:04;97979.34;;;19.16;68.48
26807;BME280;14380;49.910;6.792;2023-04-22T11:25:30;97974.06;;;19.32;70.49
26807;BME280;14380;49.910;6.792;2023-04-22T11:27:58;97970.38;;;19.34;69.84
26807;BME280;14380;49.910;6.792;2023-04-22T11:30:27;97969.72;;;18.97;69.37
26807;BME280;14380;49.910;6.792;2023-04-22T11:32:57;97969.91;;;19.04;72.06
26807;BME280;14380;49.910;6.792;2023-04-22T11:35:27;97977.53;;;19.25;71.47
26807;BME280;14380;49.910;6.792;2023-04-22T11:37:56;97982.91;;;19.25;69.39
26807;BME280;14380;49.910;6.792;2023-04-22T11:40:26;97976.59;;;19.34;69.14
26807;BME280;14380;49.910;6.792;2023-04-22T11:42:53;97978.38;;;19.68;70.17
26807;BME280;14380;49.910;6.792;2023-04-22T11:45:21;97981.78;;;19.79;70.79
26807;BME280;14380;49.910;6.792;2023-04-22T11:47:49;97973.63;;;19.88;69.48
26807;BME280;14380;49.910;6.792;2023-04-22T11:50:17;97980.34;;;20.09;68.65
26807;BME280;14380;49.910;6.792;2023-04-22T11:52:49;97978.66;;;20.00;67.63
26807;BME280;14380;49.910;6.792;2023-04-22T11:55:20;97983.28;;;19.04;68.00
26807;BME280;14380;49.910;6.792;2023-04-22T11:57:52;97990.47;;;19.38;69.74
26807;BME280;14380;49.910;6.792;2023-04-22T12:00:20;97982.81;;;19.43;69.19
26807;BME280;14380;49.910;6.792;2023-04-22T12:02:55;97988.72;;;19.55;70.08
26807;BME280;14380;49.910;6.792;2023-04-22T12:05:35;97979.56;;;19.74;70.92
26807;BME280;14380;49.910;6.792;2023-04-22T12:08:06;97983.53;;;19.53;71.83
26807;BME280;14380;49.910;6.792;2023-04-22T12:10:34;97973.91;;;19.34;72.14
26807;BME280;14380;49.910;6.792;2023-04-22T12:13:04;97982.03;;;19.59;71.31
26807;BME280;14380;49.910;6.792;2023-04-22T12:15:38;97975.09;;;19.83;70.89
26807;BME280;14380;49.910;6.792;2023-04-22T12:18:05;97976.88;;;19.74;69.24
26807;BME280;14380;49.910;6.792;2023-04-22T12:20:33;97981.03;;;20.03;69.93
26807;BME280;14380;49.910;6.792;2023-04-22T12:23:00;97983.81;;;19.85;68.60
26807;BME280;14380;49.910;6.792;2023-04-22T12:25:29;97981.66;;;19.54;69.72
26807;BME280;14380;49.910;6.792;2023-04-22T12:27:58;97983.31;;;19.89;72.53
26807;BME280;14380;49.910;6.792;2023-04-22T12:30:25;97985.25;;;19.63;69.80
26807;BME280;14380;49.910;6.792;2023-04-22T12:32:52;97986.03;;;19.55;71.06
26807;BME280;14380;49.910;6.792;2023-04-22T12:35:18;97982.09;;;19.32;71.25
26807;BME280;14380;49.910;6.792;2023-04-22T12:37:45;97982.44;;;19.38;71.37
26807;BME280;14380;49.910;6.792;2023-04-22T12:40:12;97983.41;;;19.28;71.47
26807;BME280;14380;49.910;6.792;2023-04-22T12:42:40;97993.03;;;19.47;69.48
26807;BME280;14380;49.910;6.792;2023-04-22T12:45:08;97990.13;;;19.32;70.86
26807;BME280;14380;49.910;6.792;2023-04-22T12:47:35;97990.38;;;19.90;71.98
26807;BME280;14380;49.910;6.792;2023-04-22T12:50:02;97993.16;;;19.81;71.77
26807;BME280;14380;49.910;6.792;2023-04-22T12:52:31;97988.69;;;19.89;71.70
26807;BME280;14380;49.910;6.792;2023-04-22T12:54:58;97995.38;;;19.42;69.97
26807;BME280;14380;49.910;6.792;2023-04-22T12:57:25;97987.69;;;19.90;70.96
26807;BME280;14380;49.910;6.792;2023-04-22T12:59:53;97992.91;;;20.09;70.93